Map

Track Data

SID SEASON NUMBER BASIN SUBBASIN NAME ISO_TIME NATURE LAT LON WMO_WIND WMO_PRES WMO_AGENCY TRACK_TYPE DIST2LAND LANDFALL IFLAG USA_AGENCY USA_ATCF_ID USA_LAT USA_LON USA_RECORD USA_STATUS USA_WIND USA_PRES USA_SSHS USA_R34_NE USA_R34_SE USA_R34_SW USA_R34_NW USA_R50_NE USA_R50_SE USA_R50_SW USA_R50_NW USA_R64_NE USA_R64_SE USA_R64_SW USA_R64_NW USA_POCI USA_ROCI USA_RMW USA_EYE TOKYO_LAT TOKYO_LON TOKYO_GRADE TOKYO_WIND TOKYO_PRES TOKYO_R50_DIR TOKYO_R50_LONG TOKYO_R50_SHORT TOKYO_R30_DIR TOKYO_R30_LONG TOKYO_R30_SHORT TOKYO_LAND CMA_LAT CMA_LON CMA_CAT CMA_WIND CMA_PRES HKO_LAT HKO_LON HKO_CAT HKO_WIND HKO_PRES NEWDELHI_LAT NEWDELHI_LON NEWDELHI_GRADE NEWDELHI_WIND NEWDELHI_PRES NEWDELHI_CI NEWDELHI_DP NEWDELHI_POCI REUNION_LAT REUNION_LON REUNION_TYPE REUNION_WIND REUNION_PRES REUNION_TNUM REUNION_CI REUNION_RMW REUNION_R34_NE REUNION_R34_SE REUNION_R34_SW REUNION_R34_NW REUNION_R50_NE REUNION_R50_SE REUNION_R50_SW REUNION_R50_NW REUNION_R64_NE REUNION_R64_SE REUNION_R64_SW REUNION_R64_NW BOM_LAT BOM_LON BOM_TYPE BOM_WIND BOM_PRES BOM_TNUM BOM_CI BOM_RMW BOM_R34_NE BOM_R34_SE BOM_R34_SW BOM_R34_NW BOM_R50_NE BOM_R50_SE BOM_R50_SW BOM_R50_NW BOM_R64_NE BOM_R64_SE BOM_R64_SW BOM_R64_NW BOM_ROCI BOM_POCI BOM_EYE BOM_POS_METHOD BOM_PRES_METHOD NADI_LAT NADI_LON NADI_CAT NADI_WIND NADI_PRES WELLINGTON_LAT WELLINGTON_LON WELLINGTON_WIND WELLINGTON_PRES DS824_LAT DS824_LON DS824_STAGE DS824_WIND DS824_PRES TD9636_LAT TD9636_LON TD9636_STAGE TD9636_WIND TD9636_PRES TD9635_LAT TD9635_LON TD9635_WIND TD9635_PRES TD9635_ROCI NEUMANN_LAT NEUMANN_LON NEUMANN_CLASS NEUMANN_WIND NEUMANN_PRES MLC_LAT MLC_LON MLC_CLASS MLC_WIND MLC_PRES USA_GUST BOM_GUST BOM_GUST_PER REUNION_GUST REUNION_GUST_PER USA_SEAHGT USA_SEARAD_NE USA_SEARAD_SE USA_SEARAD_SW USA_SEARAD_NW STORM_SPEED STORM_DIR
1987205N12229 1987 48 EP MM FERNANDA 1987-07-24 06:00:00 TS 11.8000 -131.000 25 hurdat_epa main 2436 2436 O_________O___ hurdat_epa EP061987 11.8000 -131.000 TD 25 -1 11.8000 -131.000 1 25 12 281
1987205N12229 1987 48 EP MM FERNANDA 1987-07-24 09:00:00 TS 11.9094 -131.581 main 2471 2471 P_________P___ EP061987 11.9102 -131.580 TD 25 -1 11.9070 -131.586 1 25 12 280
1987205N12229 1987 48 EP MM FERNANDA 1987-07-24 12:00:00 TS 12.0000 -132.200 25 hurdat_epa main 2507 2493 O_________O___ hurdat_epa EP061987 12.0000 -132.200 TD 25 -1 12.0000 -132.200 1 25 13 277
1987205N12229 1987 48 EP MM FERNANDA 1987-07-24 15:00:00 TS 12.0604 -132.879 main 2483 2412 P_________P___ EP061987 12.0574 -132.885 TD 27 -1 12.0695 -132.861 1 26 14 274
1987205N12229 1987 48 EP MM FERNANDA 1987-07-24 18:00:00 TS 12.1051 -133.590 30 hurdat_epa main 2412 2342 O_________P___ hurdat_epa EP061987 12.1000 -133.600 TD 30 -1 12.1203 -133.559 1 27 14 274
1987205N12229 1987 48 EP MM FERNANDA 1987-07-24 21:00:00 TS 12.1526 -134.295 main 2338 2268 P_________P___ EP061987 12.1498 -134.300 TD 30 -1 12.1609 -134.278 1 28 14 274
1987205N12229 1987 48 EP MM FERNANDA 1987-07-25 00:00:00 TS 12.2000 -135.000 30 hurdat_epa main 2268 2198 O_________O___ hurdat_epa EP061987 12.2000 -135.000 TD 30 -1 12.2000 -135.000 1 30 14 274
1987205N12229 1987 48 EP MM FERNANDA 1987-07-25 03:00:00 TS 12.2499 -135.708 main 2198 2124 P_________P___ EP061987 12.2498 -135.700 TD 32 -1 12.2500 -135.732 1 33 14 274
1987205N12229 1987 48 EP MM FERNANDA 1987-07-25 06:00:00 TS 12.3000 -136.415 35 hurdat_epa main 2124 2055 O_________P___ hurdat_epa EP061987 12.3000 -136.400 TS 35 0 12.3001 -136.460 1 37 14 274
1987205N12229 1987 48 EP MM FERNANDA 1987-07-25 09:00:00 TS 12.3500 -137.131 main 2051 1982 P_________P___ EP061987 12.3500 -137.123 TS 40 0 12.3501 -137.157 1 41 14 274
1987205N12229 1987 48 EP MM FERNANDA 1987-07-25 12:00:00 TS 12.4000 -137.800 45 hurdat_epa main 1982 1923 O_________O___ hurdat_epa EP061987 12.4000 -137.800 TS 45 0 12.4000 -137.800 2 45 12 275
1987205N12229 1987 48 EP MM FERNANDA 1987-07-25 15:00:00 TS 12.4497 -138.381 main 1923 1870 P_________P___ EP061987 12.4498 -138.388 TS 45 0 12.4492 -138.362 2 47 11 275
1987205N12229 1987 48 EP MM FERNANDA 1987-07-25 18:00:00 TS 12.4997 -138.892 45 hurdat_epa main 1870 1831 O_________P___ hurdat_epa EP061987 12.5000 -138.900 TS 45 0 12.4990 -138.868 2 50 10 276
1987205N12229 1987 48 EP MM FERNANDA 1987-07-25 21:00:00 TS 12.5497 -139.359 main 1822 1778 P_________P___ EP061987 12.5498 -139.365 TS 50 0 12.5493 -139.340 2 52 9 276
1987205N12229 1987 48 EP MM FERNANDA 1987-07-26 00:00:00 TS 12.6000 -139.806 55 hurdat_epa main 1778 1739 O_________O___ hurdat_epa EP061987 12.6000 -139.800 TS 55 0 12.6000 -139.800 2 55 9 277
1987205N12229 1987 48 EP CP FERNANDA 1987-07-26 03:00:00 TS 12.6513 -140.254 main 1725 1686 P_________P___ EP061987 12.6499 -140.243 TS 55 0 12.6498 -140.294 2 55 9 277
1987205N12229 1987 48 EP CP FERNANDA 1987-07-26 06:00:00 TS 12.7000 -140.701 55 hurdat_epa main 1686 1648 O_________P___ hurdat_epa EP061987 12.7000 -140.700 TS 55 0 12.6998 -140.780 2 55 9 276
1987205N12229 1987 48 EP CP FERNANDA 1987-07-26 09:00:00 TS 12.7400 -141.173 main 1639 1596 P_________P___ EP061987 12.7500 -141.208 TS 55 0 12.7499 -141.251 2 55 9 275
1987205N12229 1987 48 EP CP FERNANDA 1987-07-26 12:00:00 TS 12.7800 -141.640 55 hurdat_epa main 1596 1558 O_________O___ hurdat_epa EP061987 12.8000 -141.700 TS 55 0 12.8000 -141.700 2 55 9 276
1987205N12229 1987 48 EP CP FERNANDA 1987-07-26 15:00:00 TS 12.8260 -142.048 main 1558 1515 P_________P___ EP061987 12.8499 -142.115 TS 55 0 12.8453 -142.101 2 52 8 277
1987205N12229 1987 48 EP CP FERNANDA 1987-07-26 18:00:00 TS 12.8783 -142.437 55 hurdat_epa main 1515 1478 O_________P___ hurdat_epa EP061987 12.9000 -142.500 TS 55 0 12.8917 -142.485 2 50 8 278
1987205N12229 1987 48 EP CP FERNANDA 1987-07-26 21:00:00 TS 12.9368 -142.832 main 1478 1435 P_________P___ EP061987 12.9499 -142.885 TS 50 0 12.9422 -142.876 2 47 8 279
1987205N12229 1987 48 EP CP FERNANDA 1987-07-27 00:00:00 TS 13.0000 -143.260 45 hurdat_epa main 1426 1383 O_________O___ hurdat_epa EP061987 13.0000 -143.300 TS 45 0 13.0000 -143.300 2 45 9 278
1987205N12229 1987 48 EP CP FERNANDA 1987-07-27 03:00:00 TS 13.0596 -143.746 main 1383 1338 P_________P___ EP061987 13.0424 -143.778 TS 45 0 13.0634 -143.769 2 45 10 277
1987205N12229 1987 48 EP CP FERNANDA 1987-07-27 06:00:00 TS 13.1269 -144.275 45 hurdat_epa main 1329 1278 O_________P___ hurdat_epa EP061987 13.1000 -144.300 TS 45 0 13.1345 -144.275 2 45 11 278
1987205N12229 1987 48 EP CP FERNANDA 1987-07-27 09:00:00 TS 13.2080 -144.817 main 1278 1219 P_________P___ EP061987 13.1923 -144.828 TS 45 0 13.2133 -144.819 2 45 11 279
1987205N12229 1987 48 EP CP FERNANDA 1987-07-27 12:00:00 TS 13.3000 -145.400 45 hurdat_epa main 1219 1160 O_________O___ hurdat_epa EP061987 13.3000 -145.400 TS 45 0 13.3000 -145.400 2 45 12 279
1987205N12229 1987 48 EP CP FERNANDA 1987-07-27 15:00:00 TS 13.4034 -146.047 main 1160 1093 P_________P___ EP061987 13.3999 -146.035 TS 45 0 13.4098 -146.070 2 43 13 279
1987205N12229 1987 48 EP CP FERNANDA 1987-07-27 18:00:00 TS 13.5047 -146.713 45 hurdat_epa main 1093 1036 O_________P___ hurdat_epa EP061987 13.5000 -146.700 TS 45 0 13.5237 -146.767 2 42 13 279
1987205N12229 1987 48 EP CP FERNANDA 1987-07-27 21:00:00 TS 13.5987 -147.385 main 1028 980 P_________P___ EP061987 13.6152 -147.402 TS 42 0 13.6255 -147.430 2 41 12 277
1987205N12229 1987 48 EP CP FERNANDA 1987-07-28 00:00:00 TS 13.6600 -147.960 40 hurdat_epa main 972 949 O_________O___ hurdat_epa EP061987 13.7000 -148.000 TS 40 0 13.7000 -148.000 2 40 9 274
1987205N12229 1987 48 EP CP FERNANDA 1987-07-28 03:00:00 TS 13.6660 -148.339 main 949 926 P_________P___ EP061987 13.7147 -148.353 TS 40 0 13.7359 -148.405 2 38 6 269
1987205N12229 1987 48 EP CP FERNANDA 1987-07-28 06:00:00 TS 13.6488 -148.623 40 hurdat_epa main 933 903 O_________P___ hurdat_epa EP061987 13.7000 -148.600 TS 40 0 13.7438 -148.713 2 37 6 268
1987205N12229 1987 48 EP CP FERNANDA 1987-07-28 09:00:00 TS 13.6505 -148.932 main 903 888 P_________P___ EP061987 13.7075 -148.907 TS 37 0 13.7299 -148.964 2 36 6 269
1987205N12229 1987 48 EP CP FERNANDA 1987-07-28 12:00:00 TS 13.6400 -149.220 35 hurdat_epa main 888 866 O_________O___ hurdat_epa EP061987 13.7000 -149.200 TS 35 0 13.7000 -149.200 2 35 5 264
1987205N12229 1987 48 EP CP FERNANDA 1987-07-28 15:00:00 TS 13.5988 -149.468 main 866 852 P_________P___ EP061987 13.6574 -149.450 TS 32 -1 13.6720 -149.446 2 33 5 259
1987205N12229 1987 48 EP CP FERNANDA 1987-07-28 18:00:00 TS 13.5458 -149.718 30 hurdat_epa main 860 840 O_________P___ hurdat_epa EP061987 13.6000 -149.700 TD 30 -1 13.6293 -149.690 2 32 5 260
1987205N12229 1987 48 EP CP FERNANDA 1987-07-28 21:00:00 TS 13.5088 -150.007 main 840 820 P_________P___ EP061987 13.5574 -149.970 TD 30 -1 13.5719 -149.964 2 31 6 262
1987205N12229 1987 48 EP CP FERNANDA 1987-07-29 00:00:00 TS 13.4600 -150.360 30 hurdat_epa main 813 797 O_________O___ hurdat_epa EP061987 13.5000 -150.300 TD 30 -1 13.5000 -150.300 1 30 8 260
1987205N12229 1987 48 EP CP FERNANDA 1987-07-29 03:00:00 TS 13.3796 -150.794 main 797 778 P_________P___ EP061987 13.4074 -150.713 TD 30 -1 13.4106 -150.740 1 30 9 259
1987205N12229 1987 48 EP CP FERNANDA 1987-07-29 06:00:00 TS 13.2816 -151.288 30 hurdat_epa main 778 761 O_________P___ hurdat_epa EP061987 13.3000 -151.200 TD 30 -1 13.3079 -151.240 1 30 10 259
1987205N12229 1987 48 EP CP FERNANDA 1987-07-29 09:00:00 TS 13.1802 -151.816 main 761 743 P_________P___ EP061987 13.2001 -151.750 TD 30 -1 13.2011 -151.771 1 30 10 259
1987205N12229 1987 48 EP CP FERNANDA 1987-07-29 12:00:00 TS 13.0800 -152.340 30 hurdat_epa main 743 729 O_________O___ hurdat_epa EP061987 13.1000 -152.300 TD 30 -1 13.1000 -152.300 1 30 10 259
1987205N12229 1987 48 EP CP FERNANDA 1987-07-29 15:00:00 TS 12.9873 -152.798 main 729 720 P_________P___ EP061987 12.9923 -152.757 TD 27 -1 13.0171 -152.758 1 28 9 259
1987205N12229 1987 48 EP CP FERNANDA 1987-07-29 18:00:00 TS 12.9083 -153.242 25 hurdat_epa main 722 704 O_________P___ hurdat_epa EP061987 12.9000 -153.200 TD 25 -1 12.9415 -153.212 1 27 9 261
1987205N12229 1987 48 EP CP FERNANDA 1987-07-29 21:00:00 TS 12.8539 -153.701 main 704 701 P_________P___ EP061987 12.8499 -153.677 TD 25 -1 12.8702 -153.686 1 26 9 263
1987205N12229 1987 48 EP CP FERNANDA 1987-07-30 00:00:00 TS 12.8000 -154.200 25 hurdat_epa main 701 694 O_________O___ hurdat_epa EP061987 12.8000 -154.200 TD 25 -1 12.8000 -154.200 1 25 11 262
1987205N12229 1987 48 EP CP FERNANDA 1987-07-30 03:00:00 TS 12.7111 -154.774 main 700 696 P_________P___ EP061987 12.6999 -154.778 TD 25 -1 12.7131 -154.802 1 25 12 261
1987205N12229 1987 48 EP CP FERNANDA 1987-07-30 06:00:00 TS 12.6256 -155.389 25 hurdat_epa main 705 705 O_________P___ hurdat_epa EP061987 12.6000 -155.400 TD 25 -1 12.6280 -155.443 1 25 12 264
1987205N12229 1987 48 EP CP FERNANDA 1987-07-30 09:00:00 TS 12.5763 -156.018 main 705 705 P_________P___ EP061987 12.5425 -156.065 TD 25 -1 12.5538 -156.087 1 25 12 266
1987205N12229 1987 48 EP CP FERNANDA 1987-07-30 12:00:00 TS 12.5400 -156.620 25 hurdat_epa main 722 722 O_________O___ hurdat_epa EP061987 12.5000 -156.700 TD 25 -1 12.5000 -156.700 1 25 11 265
1987205N12229 1987 48 EP CP FERNANDA 1987-07-30 15:00:00 TS 12.4833 -157.142 main 731 731 P_________P___ EP061987 12.4348 -157.223 TD 25 -1 12.4698 -157.244 1 25 10 265
1987205N12229 1987 48 EP CP FERNANDA 1987-07-30 18:00:00 TS 12.4524 -157.630 25 hurdat_epa main 744 744 O_________P___ hurdat_epa EP061987 12.4000 -157.700 TD 25 -1 12.4618 -157.752 1 25 10 270
1987205N12229 1987 48 EP CP FERNANDA 1987-07-30 21:00:00 TS 12.4826 -158.131 main 760 760 P_________P___ EP061987 12.4349 -158.207 TD 25 -1 12.4730 -158.235 1 25 10 275
1987205N12229 1987 48 EP CP FERNANDA 1987-07-31 00:00:00 TS 12.5400 -158.620 25 hurdat_epa main 780 774 O_________O___ hurdat_epa EP061987 12.5000 -158.700 TD 25 -1 12.5000 -158.700 1 25 9 276
1987205N12229 1987 48 EP CP FERNANDA 1987-07-31 03:00:00 TS 12.5878 -159.086 main 793 793 P_________P___ EP061987 12.5499 -159.158 TD 25 -1 12.5395 -159.157 1 25 9 276
1987205N12229 1987 48 EP CP FERNANDA 1987-07-31 06:00:00 TS 12.6376 -159.541 25 hurdat_epa main 813 813 O_________P___ hurdat_epa EP061987 12.6000 -159.600 TD 25 -1 12.5882 -159.607 1 25 9 276
1987205N12229 1987 48 EP CP FERNANDA 1987-07-31 09:00:00 TS 12.6887 -159.999 main 832 832 P_________P___ EP061987 12.6502 -160.047 TD 25 -1 12.6428 -160.055 1 25 9 277
1987205N12229 1987 48 EP CP FERNANDA 1987-07-31 12:00:00 TS 12.7400 -160.460 25 hurdat_epa main 863 O_________O___ hurdat_epa EP061987 12.7000 -160.500 TD 25 -1 12.7000 -160.500 1 25 9 277

About IBTrACS Database

This database is a web-friendly format of International Best Track Archive for Climate Stewardship (IBTrACS), a global best track data archive curated by NOAA dating back to 1842.

Updated: 2021-11-26